Terminal Aerodrome Forecast
Issued by NWS Boston, MA

Home | Current Version | Previous Version | Text Only | Print | Product List | Glossary On
Versions: 1 2 3 4 5 6 7 8 9 10 11 12 13 14 15 16 17 18 19 20 21 22 23 24 25 26 27 28 29 30 31 32 33 34 35 36 37 38
000
FTUS41 KBOX 281125
TAFBOS
TAF
KBOS 281125Z 2812/2918 32010KT P6SM SCT045 BKN060
     FM281300 34009KT P6SM SCT050
     FM290100 33011KT P6SM SKC
     FM291300 01008KT P6SM SKC
     FM291500 03008KT P6SM FEW050=

USA.gov is the U.S. government's official web portal to all federal, state and local government web resources and services.